Time;durP1;ratioP1;P1;durP2;ratioP2;P2;SDS_P1;SDS_P2;PMS_P1;PMS_P2;Temp;Humidity;BMP_temperature;BMP_pressure;BME280_temperature;BME280_humidity;BME280_pressure;Samples;Min_cycle;Max_cycle;Signal;HPM_P1;HPM_P2
2024/01/02 00:01:10;;;;;;;;;;;;;;;;;;5032827;28;19999;-54
2024/01/02 00:03:36;;;;;;;;;;;;;;;;;;5032108;28;20244;-54
2024/01/02 00:06:02;;;;;;;;;;;;;;;;;;5032678;28;20313;-53
2024/01/02 00:08:28;;;;;;;;;;;;;;;;;;5032822;28;19913;-54
2024/01/02 00:10:54;;;;;;;;;;;;;;;;;;5032958;28;19913;-55
2024/01/02 00:13:20;;;;;;;;;;;;;;;;;;5030698;28;20383;-53
2024/01/02 00:15:46;;;;;;;;;;;;;;;;;;5032041;28;19982;-55
2024/01/02 00:18:12;;;;;;;;;;;;;;;;;;5032859;28;19956;-54
2024/01/02 00:20:38;;;;;;;;;;;;;;;;;;5030516;28;20451;-54
2024/01/02 00:23:04;;;;;;;;;;;;;;;;;;5030049;28;20324;-54
2024/01/02 00:25:30;;;;;;;;;;;;;;;;;;5031921;28;20399;-54
2024/01/02 00:27:57;;;;;;;;;;;;;;;;;;5032554;28;19949;-55
2024/01/02 00:30:23;;;;;;;;;;;;;;;;;;5029876;28;19917;-56
2024/01/02 00:32:49;;;;;;;;;;;;;;;;;;5031013;28;19967;-56
2024/01/02 00:35:16;;;;;;;;;;;;;;;;;;5030781;28;19952;-56
2024/01/02 00:37:42;;;;;;;;;;;;;;;;;;5031743;28;19916;-55
2024/01/02 00:40:08;;;;;;;;;;;;;;;;;;5031705;28;19940;-55
2024/01/02 00:42:34;;;;;;;;;;;;;;;;;;5032765;28;19913;-55
2024/01/02 00:45:02;;;;;;;;;;;;;;;;;;5031186;28;20432;-55
2024/01/02 00:47:28;;;;;;;;;;;;;;;;;;5031471;28;19955;-55
2024/01/02 00:49:54;;;;;;;;;;;;;;;;;;5029992;28;19948;-55
2024/01/02 00:52:20;;;;;;;;;;;;;;;;;;5031302;28;19964;-57
2024/01/02 00:54:46;;;;;;;;;;;;;;;;;;5029367;28;20333;-55
2024/01/02 00:57:12;;;;;;;;;;;;;;;;;;5031119;28;19937;-55
2024/01/02 00:59:38;;;;;;;;;;;;;;;;;;5030556;28;20341;-55
2024/01/02 01:02:04;;;;;;;;;;;;;;;;;;5029674;28;19920;-55
2024/01/02 01:04:30;;;;;;;;;;;;;;;;;;5031240;28;20376;-55
2024/01/02 01:06:56;;;;;;;;;;;;;;;;;;5031739;28;19955;-54
2024/01/02 01:09:22;;;;;;;;;;;;;;;;;;5029832;28;19940;-55
2024/01/02 01:11:48;;;;;;;;;;;;;;;;;;5031345;28;19979;-55
2024/01/02 01:14:13;;;;;;;;;;;;;;;;;;5030629;28;20346;-55
2024/01/02 01:16:39;;;;;;;;;;;;;;;;;;5031610;28;19971;-54
2024/01/02 01:19:05;;;;;;;;;;;;;;;;;;5029693;28;19953;-55
2024/01/02 01:21:31;;;;;;;;;;;;;;;;;;5029683;28;20357;-55
2024/01/02 01:23:57;;;;;;;;;;;;;;;;;;5024712;28;20397;-55
2024/01/02 01:26:23;;;;;;;;;;;;;;;;;;5029604;28;19960;-55
2024/01/02 01:28:49;;;;;;;;;;;;;;;;;;5028811;28;20446;-55
2024/01/02 01:31:15;;;;;;;;;;;;;;;;;;5031534;28;19947;-55
2024/01/02 01:33:41;;;;;;;;;;;;;;;;;;5027231;28;20361;-54
2024/01/02 01:36:07;;;;;;;;;;;;;;;;;;5031484;28;19978;-55
2024/01/02 01:38:33;;;;;;;;;;;;;;;;;;5029973;28;19913;-54
2024/01/02 01:40:59;;;;;;;;;;;;;;;;;;5032729;28;20352;-54
2024/01/02 01:43:25;;;;;;;;;;;;;;;;;;5032436;28;19975;-54
2024/01/02 01:45:51;;;;;;;;;;;;;;;;;;5030686;28;20388;-54
2024/01/02 01:48:17;;;;;;;;;;;;;;;;;;5031049;28;19964;-55
2024/01/02 01:50:43;;;;;;;;;;;;;;;;;;5030591;28;19956;-56
2024/01/02 01:53:09;;;;;;;;;;;;;;;;;;5024775;28;19975;-55
2024/01/02 01:55:35;;;;;;;;;;;;;;;;;;5025520;28;20387;-56
2024/01/02 01:58:01;;;;;;;;;;;;;;;;;;5030911;28;20439;-51
2024/01/02 02:00:27;;;;;;;;;;;;;;;;;;5028084;28;19967;-52
2024/01/02 02:02:53;;;;;;;;;;;;;;;;;;5027705;28;20199;-52
2024/01/02 02:05:19;;;;;;;;;;;;;;;;;;5027106;28;19960;-50
2024/01/02 02:07:45;;;;;;;;;;;;;;;;;;5028432;28;20361;-53
2024/01/02 02:10:11;;;;;;;;;;;;;;;;;;5027852;28;20321;-52
2024/01/02 02:12:37;;;;;;;;;;;;;;;;;;5030977;28;19909;-52
2024/01/02 02:15:03;;;;;;;;;;;;;;;;;;5027661;28;19931;-51
2024/01/02 02:17:29;;;;;;;;;;;;;;;;;;5030184;28;19913;-51
2024/01/02 02:19:55;;;;;;;;;;;;;;;;;;5031808;28;20297;-51
2024/01/02 02:22:21;;;;;;;;;;;;;;;;;;5028212;28;20377;-51
2024/01/02 02:24:48;;;;;;;;;;;;;;;;;;5029066;28;20439;-51
2024/01/02 02:27:14;;;;;;;;;;;;;;;;;;5030441;28;20008;-51
2024/01/02 02:29:40;;;;;;;;;;;;;;;;;;5028571;28;19921;-52
2024/01/02 02:32:06;;;;;;;;;;;;;;;;;;5027210;28;20238;-52
2024/01/02 02:34:32;;;;;;;;;;;;;;;;;;5030071;28;20090;-51
2024/01/02 02:36:57;;;;;;;;;;;;;;;;;;5028750;28;19948;-51
2024/01/02 02:39:23;;;;;;;;;;;;;;;;;;5026684;28;20404;-52
2024/01/02 02:41:49;;;;;;;;;;;;;;;;;;5027099;28;19949;-52
2024/01/02 02:44:15;;;;;;;;;;;;;;;;;;5028034;28;19944;-52
2024/01/02 02:46:41;;;;;;;;;;;;;;;;;;5030123;28;19952;-52
2024/01/02 02:49:07;;;;;;;;;;;;;;;;;;5029832;28;19983;-52
2024/01/02 02:51:33;;;;;;;;;;;;;;;;;;5031349;28;19928;-52
2024/01/02 02:53:59;;;;;;;;;;;;;;;;;;5034625;28;20323;-51
2024/01/02 02:56:25;;;;;;;;;;;;;;;;;;5031586;28;20404;-51
2024/01/02 02:58:51;;;;;;;;;;;;;;;;;;5029622;28;20058;-52
2024/01/02 03:01:17;;;;;;;;;;;;;;;;;;5028746;28;20003;-51
2024/01/02 03:03:43;;;;;;;;;;;;;;;;;;5024769;28;19945;-50
2024/01/02 03:06:09;;;;;;;;;;;;;;;;;;5031246;28;19952;-51
2024/01/02 03:08:34;;;;;;;;;;;;;;;;;;5032950;28;20458;-53
2024/01/02 03:11:00;;;;;;;;;;;;;;;;;;5030990;28;19951;-53
2024/01/02 03:13:28;;;;;;;;;;;;;;;;;;5029808;28;19948;-54
2024/01/02 03:15:54;;;;;;;;;;;;;;;;;;5029654;28;20005;-53
2024/01/02 03:18:20;;;;;;;;;;;;;;;;;;5030067;28;20519;-54
2024/01/02 03:20:46;;;;;;;;;;;;;;;;;;5023457;28;20295;-53
2024/01/02 03:23:12;;;;;;;;;;;;;;;;;;5024352;28;19952;-55
2024/01/02 03:25:38;;;;;;;;;;;;;;;;;;5018155;28;19999;-54
2024/01/02 03:28:04;;;;;;;;;;;;;;;;;;5029464;28;19916;-54
2024/01/02 03:30:29;;;;;;;;;;;;;;;;;;5028150;28;19952;-53
2024/01/02 03:32:55;;;;;;;;;;;;;;;;;;5029162;28;19960;-52
2024/01/02 03:35:21;;;;;;;;;;;;;;;;;;5029079;28;19968;-53
2024/01/02 03:37:47;;;;;;;;;;;;;;;;;;5028502;28;20090;-54
2024/01/02 03:40:14;;;;;;;;;;;;;;;;;;5029665;28;20360;-53
2024/01/02 03:42:40;;;;;;;;;;;;;;;;;;5030027;28;20020;-53
2024/01/02 03:45:06;;;;;;;;;;;;;;;;;;5028615;28;20032;-53
2024/01/02 03:47:32;;;;;;;;;;;;;;;;;;5013364;28;19968;-53
2024/01/02 03:49:58;;;;;;;;;;;;;;;;;;5026920;28;20008;-54
2024/01/02 03:52:25;;;;;;;;;;;;;;;;;;5028220;28;19955;-54
2024/01/02 03:54:51;;;;;;;;;;;;;;;;;;5021834;28;19956;-53
2024/01/02 03:57:17;;;;;;;;;;;;;;;;;;5013077;28;19960;-54
2024/01/02 03:59:43;;;;;;;;;;;;;;;;;;5028744;28;19963;-54
2024/01/02 04:02:09;;;;;;;;;;;;;;;;;;5029844;28;19992;-53
2024/01/02 04:04:35;;;;;;;;;;;;;;;;;;5035238;28;20452;-53
2024/01/02 04:07:01;;;;;;;;;;;;;;;;;;5032825;28;19971;-54
2024/01/02 04:09:27;;;;;;;;;;;;;;;;;;5034912;28;19948;-53
2024/01/02 04:11:53;;;;;;;;;;;;;;;;;;5033604;28;19909;-53
2024/01/02 04:14:19;;;;;;;;;;;;;;;;;;5032451;28;19913;-54
2024/01/02 04:16:45;;;;;;;;;;;;;;;;;;5030214;28;20305;-53
2024/01/02 04:19:11;;;;;;;;;;;;;;;;;;5024840;28;19988;-51
2024/01/02 04:21:37;;;;;;;;;;;;;;;;;;5019514;28;20022;-52
2024/01/02 04:24:03;;;;;;;;;;;;;;;;;;5030103;28;19913;-52
2024/01/02 04:26:29;;;;;;;;;;;;;;;;;;5017589;28;19978;-52
2024/01/02 04:28:55;;;;;;;;;;;;;;;;;;5027353;28;20381;-51
2024/01/02 04:31:21;;;;;;;;;;;;;;;;;;5030336;28;20010;-51
2024/01/02 04:33:47;;;;;;;;;;;;;;;;;;5028771;28;19963;-52
2024/01/02 04:36:12;;;;;;;;;;;;;;;;;;5029701;28;19948;-52
2024/01/02 04:38:38;;;;;;;;;;;;;;;;;;5028549;28;20747;-50
2024/01/02 04:41:06;;;;;;;;;;;;;;;;;;5032812;28;20077;-51
2024/01/02 04:43:32;;;;;;;;;;;;;;;;;;5024160;28;20487;-51
2024/01/02 04:45:58;;;;;;;;;;;;;;;;;;5039639;28;20003;-52
2024/01/02 04:48:24;;;;;;;;;;;;;;;;;;5032398;28;19960;-52
2024/01/02 04:50:50;;;;;;;;;;;;;;;;;;5031775;28;20311;-52
2024/01/02 04:53:16;;;;;;;;;;;;;;;;;;5032061;28;20313;-52
2024/01/02 04:55:42;;;;;;;;;;;;;;;;;;5050649;28;19935;-53
2024/01/02 04:58:08;;;;;;;;;;;;;;;;;;5043988;28;20376;-52
2024/01/02 05:00:34;;;;;;;;;;;;;;;;;;5031882;28;19963;-52
2024/01/02 05:03:01;;;;;;;;;;;;;;;;;;5027846;28;19956;-52
2024/01/02 05:05:27;;;;;;;;;;;;;;;;;;5032251;28;19909;-51
2024/01/02 05:07:53;;;;;;;;;;;;;;;;;;5032145;28;19913;-53
2024/01/02 05:10:19;;;;;;;;;;;;;;;;;;5034029;28;19913;-51
2024/01/02 05:12:45;;;;;;;;;;;;;;;;;;5031186;28;20288;-52
2024/01/02 05:15:11;;;;;;;;;;;;;;;;;;5032927;28;20345;-58
2024/01/02 05:17:37;;;;;;;;;;;;;;;;;;5032390;28;19917;-51
2024/01/02 05:20:03;;;;;;;;;;;;;;;;;;5036836;28;20004;-52
2024/01/02 05:22:29;;;;;;;;;;;;;;;;;;5036813;28;19967;-51
2024/01/02 05:24:55;;;;;;;;;;;;;;;;;;5032759;28;19921;-52
2024/01/02 05:27:21;;;;;;;;;;;;;;;;;;5031682;28;19923;-52
2024/01/02 05:29:47;;;;;;;;;;;;;;;;;;5032638;28;19909;-52
2024/01/02 05:32:13;;;;;;;;;;;;;;;;;;5032095;28;19952;-53
2024/01/02 05:34:38;;;;;;;;;;;;;;;;;;5031078;28;19952;-53
2024/01/02 05:37:04;;;;;;;;;;;;;;;;;;5031083;28;19949;-51
2024/01/02 05:39:30;;;;;;;;;;;;;;;;;;5032730;28;20384;-51
2024/01/02 05:41:56;;;;;;;;;;;;;;;;;;5051407;28;20380;-51
2024/01/02 05:44:22;;;;;;;;;;;;;;;;;;5031968;28;19952;-51
2024/01/02 05:46:48;;;;;;;;;;;;;;;;;;5032468;28;20326;-51
2024/01/02 05:49:14;;;;;;;;;;;;;;;;;;5023398;28;19956;-52
2024/01/02 05:51:40;;;;;;;;;;;;;;;;;;5030668;28;19963;-51
2024/01/02 05:54:06;;;;;;;;;;;;;;;;;;5022557;28;19948;-51
2024/01/02 05:56:32;;;;;;;;;;;;;;;;;;5029906;28;19959;-51
2024/01/02 05:58:58;;;;;;;;;;;;;;;;;;5030071;28;20022;-52
2024/01/02 06:01:24;;;;;;;;;;;;;;;;;;5030151;28;19913;-52
2024/01/02 06:03:50;;;;;;;;;;;;;;;;;;5031408;28;20381;-52
2024/01/02 06:06:15;;;;;;;;;;;;;;;;;;5030954;28;19960;-52
2024/01/02 06:08:41;;;;;;;;;;;;;;;;;;5030967;28;19994;-52
2024/01/02 06:11:07;;;;;;;;;;;;;;;;;;5028018;28;19924;-51
2024/01/02 06:13:33;;;;;;;;;;;;;;;;;;5028237;28;19973;-52
2024/01/02 06:15:59;;;;;;;;;;;;;;;;;;5030549;28;19983;-52
2024/01/02 06:18:25;;;;;;;;;;;;;;;;;;5030681;28;20374;-51
2024/01/02 06:20:51;;;;;;;;;;;;;;;;;;5029713;28;19963;-52
2024/01/02 06:23:17;;;;;;;;;;;;;;;;;;5030134;28;19943;-52
2024/01/02 06:25:43;;;;;;;;;;;;;;;;;;5033179;28;19960;-52
2024/01/02 06:28:09;;;;;;;;;;;;;;;;;;5030350;28;19990;-51
2024/01/02 06:30:35;;;;;;;;;;;;;;;;;;5025826;28;20335;-52
2024/01/02 06:33:01;;;;;;;;;;;;;;;;;;5030409;28;19952;-52
2024/01/02 06:35:27;;;;;;;;;;;;;;;;;;5016379;28;19909;-51
2024/01/02 06:37:53;;;;;;;;;;;;;;;;;;5031319;28;19952;-52
2024/01/02 06:40:19;;;;;;;;;;;;;;;;;;5031091;28;20021;-55
2024/01/02 06:42:45;;;;;;;;;;;;;;;;;;5030631;28;19959;-55
2024/01/02 06:45:11;;;;;;;;;;;;;;;;;;5028956;28;19923;-55
2024/01/02 06:47:37;;;;;;;;;;;;;;;;;;5057232;28;19909;-55
2024/01/02 06:50:03;;;;;;;;;;;;;;;;;;5057340;28;20003;-56
2024/01/02 06:52:29;;;;;;;;;;;;;;;;;;5030140;28;19909;-56
2024/01/02 06:54:55;;;;;;;;;;;;;;;;;;5030210;28;19945;-56
2024/01/02 06:57:21;;;;;;;;;;;;;;;;;;5031172;28;19913;-55
2024/01/02 06:59:47;;;;;;;;;;;;;;;;;;5029901;28;19908;-55
2024/01/02 07:02:13;;;;;;;;;;;;;;;;;;5020832;28;20001;-55
2024/01/02 07:04:39;;;;;;;;;;;;;;;;;;5010684;28;19913;-57
2024/01/02 07:07:05;;;;;;;;;;;;;;;;;;5025064;28;19909;-58
2024/01/02 07:09:30;;;;;;;;;;;;;;;;;;5029557;28;20011;-58
2024/01/02 07:11:56;;;;;;;;;;;;;;;;;;5030924;28;20003;-59
2024/01/02 07:14:23;;;;;;;;;;;;;;;;;;5029785;28;19972;-58
2024/01/02 07:16:49;;;;;;;;;;;;;;;;;;5029498;28;20288;-58
2024/01/02 07:19:14;;;;;;;;;;;;;;;;;;5026937;28;19909;-58
2024/01/02 07:21:40;;;;;;;;;;;;;;;;;;5029851;28;20031;-57
2024/01/02 07:24:06;;;;;;;;;;;;;;;;;;5029112;28;19952;-58
2024/01/02 07:26:32;;;;;;;;;;;;;;;;;;5030105;28;19994;-58
2024/01/02 07:28:58;;;;;;;;;;;;;;;;;;5029381;28;19960;-57
2024/01/02 07:31:26;;;;;;;;;;;;;;;;;;5028723;28;20322;-58
2024/01/02 07:33:51;;;;;;;;;;;;;;;;;;5030345;28;20400;-57
2024/01/02 07:36:18;;;;;;;;;;;;;;;;;;5023124;28;19952;-57
2024/01/02 07:38:44;;;;;;;;;;;;;;;;;;5029259;28;19913;-58
2024/01/02 07:41:09;;;;;;;;;;;;;;;;;;5029402;28;19945;-57
2024/01/02 07:43:35;;;;;;;;;;;;;;;;;;5017251;28;19945;-57
2024/01/02 07:46:01;;;;;;;;;;;;;;;;;;5027298;28;19991;-57
2024/01/02 07:48:29;;;;;;;;;;;;;;;;;;5029164;28;19915;-54
2024/01/02 07:50:55;;;;;;;;;;;;;;;;;;5027106;28;19916;-58
2024/01/02 07:53:22;;;;;;;;;;;;;;;;;;5029281;28;20621;-55
2024/01/02 07:55:48;;;;;;;;;;;;;;;;;;5029291;28;19916;-55
2024/01/02 07:58:14;;;;;;;;;;;;;;;;;;5029828;28;19943;-55
2024/01/02 08:00:40;;;;;;;;;;;;;;;;;;5028624;28;19913;-51
2024/01/02 08:03:06;;;;;;;;;;;;;;;;;;5029632;28;19963;-53
2024/01/02 08:05:32;;;;;;;;;;;;;;;;;;5027843;28;19963;-51
2024/01/02 08:07:58;;;;;;;;;;;;;;;;;;5029160;28;19912;-54
2024/01/02 08:10:24;;;;;;;;;;;;;;;;;;5029973;28;19959;-57
2024/01/02 08:12:50;;;;;;;;;;;;;;;;;;5028661;28;19908;-57
2024/01/02 08:15:16;;;;;;;;;;;;;;;;;;5027503;28;19999;-57
2024/01/02 08:17:42;;;;;;;;;;;;;;;;;;5027507;28;19980;-57
2024/01/02 08:20:09;;;;;;;;;;;;;;;;;;5036179;28;19974;-57
2024/01/02 08:22:35;;;;;;;;;;;;;;;;;;5041382;28;19909;-57
2024/01/02 08:25:01;;;;;;;;;;;;;;;;;;5034661;28;19975;-57
2024/01/02 08:27:26;;;;;;;;;;;;;;;;;;5032423;28;20384;-57
2024/01/02 08:29:54;;;;;;;;;;;;;;;;;;5032535;28;20070;-58
2024/01/02 08:32:21;;;;;;;;;;;;;;;;;;5032664;28;19909;-58
2024/01/02 08:34:47;;;;;;;;;;;;;;;;;;5033592;28;20272;-57
2024/01/02 08:37:13;;;;;;;;;;;;;;;;;;5033207;28;19963;-57
2024/01/02 08:39:39;;;;;;;;;;;;;;;;;;5032133;28;19959;-57
2024/01/02 08:42:05;;;;;;;;;;;;;;;;;;5032621;28;20003;-57
2024/01/02 08:44:33;;;;;;;;;;;;;;;;;;5028874;28;19920;-57
2024/01/02 08:46:59;;;;;;;;;;;;;;;;;;5028042;28;19966;-57
2024/01/02 08:49:24;;;;;;;;;;;;;;;;;;5056743;28;19913;-57
2024/01/02 08:51:50;;;;;;;;;;;;;;;;;;5032793;28;20022;-57
2024/01/02 08:54:16;;;;;;;;;;;;;;;;;;5032758;28;20550;-58
2024/01/02 08:56:42;;;;;;;;;;;;;;;;;;5033556;28;20002;-58
2024/01/02 08:59:08;;;;;;;;;;;;;;;;;;5033212;28;19936;-57
2024/01/02 09:01:34;;;;;;;;;;;;;;;;;;5031054;28;19945;-57
2024/01/02 09:04:00;;;;;;;;;;;;;;;;;;5031921;28;19949;-57
2024/01/02 09:06:26;;;;;;;;;;;;;;;;;;5033492;28;20010;-58
2024/01/02 09:08:52;;;;;;;;;;;;;;;;;;5032327;28;19960;-57
2024/01/02 09:11:18;;;;;;;;;;;;;;;;;;5032631;28;19955;-58
2024/01/02 09:13:44;;;;;;;;;;;;;;;;;;5030292;28;19962;-58
2024/01/02 09:16:10;;;;;;;;;;;;;;;;;;5031788;28;20016;-57
2024/01/02 09:18:36;;;;;;;;;;;;;;;;;;5031217;28;19971;-58
2024/01/02 09:21:02;;;;;;;;;;;;;;;;;;5032210;28;20415;-57
2024/01/02 09:23:28;;;;;;;;;;;;;;;;;;5034451;28;19936;-55
2024/01/02 09:25:53;;;;;;;;;;;;;;;;;;5032398;28;19917;-55
2024/01/02 09:28:20;;;;;;;;;;;;;;;;;;5031310;28;20026;-55
2024/01/02 09:30:46;;;;;;;;;;;;;;;;;;5032360;28;20009;-57
2024/01/02 09:33:12;;;;;;;;;;;;;;;;;;5031176;28;19967;-58
2024/01/02 09:35:38;;;;;;;;;;;;;;;;;;5030897;28;19913;-57
2024/01/02 09:38:04;;;;;;;;;;;;;;;;;;5031083;28;20420;-57
2024/01/02 09:40:31;;;;;;;;;;;;;;;;;;5031446;28;19913;-57
2024/01/02 09:42:57;;;;;;;;;;;;;;;;;;5030209;28;19909;-57
2024/01/02 09:45:24;;;;;;;;;;;;;;;;;;5042364;28;19960;-57
2024/01/02 09:47:51;;;;;;;;;;;;;;;;;;5030583;28;20063;-57
2024/01/02 09:50:17;;;;;;;;;;;;;;;;;;5031350;28;19916;-58
2024/01/02 09:52:42;;;;;;;;;;;;;;;;;;5023462;28;19948;-57
2024/01/02 09:55:08;;;;;;;;;;;;;;;;;;5030887;28;19979;-58
2024/01/02 09:57:34;;;;;;;;;;;;;;;;;;5031191;28;20365;-54
2024/01/02 10:00:00;;;;;;;;;;;;;;;;;;5033653;28;19956;-55
2024/01/02 10:02:26;;;;;;;;;;;;;;;;;;5030600;28;19953;-55
2024/01/02 10:04:52;;;;;;;;;;;;;;;;;;5030433;28;19998;-55
2024/01/02 10:07:18;;;;;;;;;;;;;;;;;;5031717;28;19967;-58
2024/01/02 10:09:44;;;;;;;;;;;;;;;;;;5029419;28;19956;-58
2024/01/02 10:12:10;;;;;;;;;;;;;;;;;;5030104;28;19964;-57
2024/01/02 10:14:36;;;;;;;;;;;;;;;;;;5030500;28;19915;-58
2024/01/02 10:17:03;;;;;;;;;;;;;;;;;;5032705;28;20341;-58
2024/01/02 10:19:29;;;;;;;;;;;;;;;;;;5041808;28;19909;-58
2024/01/02 10:21:55;;;;;;;;;;;;;;;;;;5031405;28;19994;-58
2024/01/02 10:24:21;;;;;;;;;;;;;;;;;;5035665;28;19956;-57
2024/01/02 10:26:47;;;;;;;;;;;;;;;;;;5028171;28;19963;-58
2024/01/02 10:29:13;;;;;;;;;;;;;;;;;;5030408;28;20338;-59
2024/01/02 10:31:39;;;;;;;;;;;;;;;;;;5035979;28;20016;-56
2024/01/02 10:34:04;;;;;;;;;;;;;;;;;;5039162;28;20008;-58
2024/01/02 10:36:30;;;;;;;;;;;;;;;;;;5030879;28;19967;-58
2024/01/02 10:38:56;;;;;;;;;;;;;;;;;;5029822;28;19952;-58
2024/01/02 10:41:22;;;;;;;;;;;;;;;;;;5029554;28;19952;-58
2024/01/02 10:43:48;;;;;;;;;;;;;;;;;;5026870;28;19959;-58
2024/01/02 10:46:14;;;;;;;;;;;;;;;;;;5027854;28;20660;-58
2024/01/02 10:48:40;;;;;;;;;;;;;;;;;;5029187;28;20384;-58
2024/01/02 10:51:08;;;;;;;;;;;;;;;;;;5031131;28;19936;-58
2024/01/02 10:53:34;;;;;;;;;;;;;;;;;;5025912;28;20686;-58
2024/01/02 10:55:59;;;;;;;;;;;;;;;;;;5027293;28;19909;-58
2024/01/02 10:58:27;;;;;;;;;;;;;;;;;;5024491;28;20011;-58
2024/01/02 11:00:52;;;;;;;;;;;;;;;;;;5029258;28;20336;-58
2024/01/02 11:03:18;;;;;;;;;;;;;;;;;;5029371;28;20299;-58
2024/01/02 11:05:44;;;;;;;;;;;;;;;;;;5030753;28;19964;-58
2024/01/02 11:08:10;;;;;;;;;;;;;;;;;;5030486;28;19920;-58
2024/01/02 11:10:36;;;;;;;;;;;;;;;;;;5028600;28;19952;-58
2024/01/02 11:13:05;;;;;;;;;;;;;;;;;;5034795;28;19970;-58
2024/01/02 11:15:31;;;;;;;;;;;;;;;;;;5030552;28;19916;-58
2024/01/02 11:17:57;;;;;;;;;;;;;;;;;;5024230;28;19948;-58
2024/01/02 11:20:23;;;;;;;;;;;;;;;;;;5023914;28;19983;-58
2024/01/02 11:22:49;;;;;;;;;;;;;;;;;;5028248;28;20277;-58
2024/01/02 11:25:14;;;;;;;;;;;;;;;;;;5028039;28;19916;-58
2024/01/02 11:27:40;;;;;;;;;;;;;;;;;;5026330;28;20003;-58
2024/01/02 11:30:07;;;;;;;;;;;;;;;;;;5029618;28;19996;-57
2024/01/02 11:32:33;;;;;;;;;;;;;;;;;;5026030;28;20377;-58
2024/01/02 11:35:00;;;;;;;;;;;;;;;;;;5023167;28;19954;-55
2024/01/02 11:37:26;;;;;;;;;;;;;;;;;;5028830;28;19909;-58
2024/01/02 11:39:52;;;;;;;;;;;;;;;;;;5026795;28;20361;-58
2024/01/02 11:42:18;;;;;;;;;;;;;;;;;;5027698;28;19948;-57
2024/01/02 11:44:43;;;;;;;;;;;;;;;;;;5026939;28;19923;-58
2024/01/02 11:47:10;;;;;;;;;;;;;;;;;;5025029;28;19944;-58
2024/01/02 11:49:36;;;;;;;;;;;;;;;;;;5026892;28;19913;-57
2024/01/02 11:52:01;;;;;;;;;;;;;;;;;;5028054;28;19916;-56
2024/01/02 11:54:27;;;;;;;;;;;;;;;;;;5026786;28;20384;-56
2024/01/02 11:56:53;;;;;;;;;;;;;;;;;;5030465;28;20419;-57
2024/01/02 11:59:19;;;;;;;;;;;;;;;;;;5028896;28;19935;-56
2024/01/02 12:01:45;;;;;;;;;;;;;;;;;;5037694;28;19951;-56
2024/01/02 12:04:11;;;;;;;;;;;;;;;;;;5035808;28;19994;-56
2024/01/02 12:06:37;;;;;;;;;;;;;;;;;;5033046;28;20288;-56
2024/01/02 12:09:04;;;;;;;;;;;;;;;;;;5029402;28;19916;-57
2024/01/02 12:11:31;;;;;;;0.70;0.70;;;;;;;;;;5032061;28;19909;-56
2024/01/02 12:14:10;;;;;;;1.20;1.20;;;;;;;;;;5031707;28;20201;-56
2024/01/02 12:16:36;;;;;;;;;;;;;;;;;;5029262;28;20273;-56
2024/01/02 12:19:02;;;;;;;;;;;;;;;;;;5034643;28;20344;-56
2024/01/02 12:21:28;;;;;;;;;;;;;;;;;;5027640;28;19952;-56
2024/01/02 12:23:54;;;;;;;;;;;;;;;;;;5027855;28;19912;-56
2024/01/02 12:26:20;;;;;;;;;;;;;;;;;;5030396;28;20479;-56
2024/01/02 12:28:46;;;;;;;;;;;;;;;;;;5028841;28;19909;-56
2024/01/02 12:31:12;;;;;;;;;;;;;;;;;;5029015;28;19908;-56
2024/01/02 12:33:38;;;;;;;;;;;;;;;;;;5030370;28;20828;-56
2024/01/02 12:36:04;;;;;;;;;;;;;;;;;;5030189;28;20325;-57
2024/01/02 12:38:30;;;;;;;;;;;;;;;;;;5030974;28;19967;-56
2024/01/02 12:40:56;;;;;;;;;;;;;;;;;;5029734;28;19972;-56
2024/01/02 12:43:25;;;;;;;;;;;;;;;;;;5029396;28;19948;-56
2024/01/02 12:45:51;;;;;;;;;;;;;;;;;;5031240;28;19912;-56
2024/01/02 12:48:17;;;;;;;;;;;;;;;;;;5031620;28;19920;-56
2024/01/02 12:50:44;;;;;;;;;;;;;;;;;;5031508;28;20366;-56
2024/01/02 12:53:10;;;;;;;;;;;;;;;;;;5028141;28;20323;-56
2024/01/02 12:55:36;;;;;;;;;;;;;;;;;;5031804;28;19958;-56
2024/01/02 12:58:02;;;;;;;;;;;;;;;;;;5030130;28;19909;-56
2024/01/02 13:00:28;;;;;;;;;;;;;;;;;;5033583;28;20613;-56
2024/01/02 13:02:54;;;;;;;;;;;;;;;;;;5031495;28;20321;-56
2024/01/02 13:05:20;;;;;;;;;;;;;;;;;;5029412;28;19952;-56
2024/01/02 13:07:46;;;;;;;;;;;;;;;;;;5030216;28;19952;-57
2024/01/02 13:10:12;;;;;;;;;;;;;;;;;;5030020;28;19916;-56
2024/01/02 13:12:43;;;;;;;;;;;;;;;;;;5031580;28;19944;-56
2024/01/02 13:15:10;;;;;;;;;;;;;;;;;;5032007;28;20292;-56
2024/01/02 13:17:36;;;;;;;;;;;;;;;;;;5028451;28;19921;-56
2024/01/02 13:20:02;;;;;;;;;;;;;;;;;;5032123;28;19983;-57
2024/01/02 13:22:28;;;;;;;;;;;;;;;;;;5028775;28;19916;-57
2024/01/02 13:24:54;;;;;;;;;;;;;;;;;;5030752;28;19931;-56
2024/01/02 13:27:20;;;;;;;;;;;;;;;;;;5028057;28;19913;-57
2024/01/02 13:29:46;;;;;;;;;;;;;;;;;;5035515;28;19995;-57
2024/01/02 13:32:12;;;;;;;;;;;;;;;;;;5030087;28;19913;-56
2024/01/02 13:34:39;;;;;;;;;;;;;;;;;;5025567;28;19955;-56
2024/01/02 13:37:05;;;;;;;;;;;;;;;;;;5032556;28;20357;-56
2024/01/02 13:39:31;;;;;;;;;;;;;;;;;;5032212;28;19959;-56
2024/01/02 13:41:57;;;;;;;;;;;;;;;;;;5032255;28;19909;-56
2024/01/02 13:44:23;;;;;;;;;;;;;;;;;;5032470;28;20285;-56
2024/01/02 13:46:49;;;;;;;;;;;;;;;;;;5032052;28;20005;-57
2024/01/02 13:49:15;;;;;;;;;;;;;;;;;;5029087;28;20684;-57
2024/01/02 13:51:41;;;;;;;;;;;;;;;;;;5024998;28;20330;-56
2024/01/02 13:54:07;;;;;;;;;;;;;;;;;;5031798;28;19959;-56
2024/01/02 13:56:33;;;;;;;;;;;;;;;;;;5031851;28;19940;-56
2024/01/02 13:58:59;;;;;;;;;;;;;;;;;;5031927;28;19986;-56
2024/01/02 14:01:25;;;;;;;;;;;;;;;;;;5031559;28;19938;-56
2024/01/02 14:03:52;;;;;;;;;;;;;;;;;;5031459;28;19913;-57
2024/01/02 14:06:18;;;;;;;;;;;;;;;;;;5028400;28;19924;-56
2024/01/02 14:08:44;;;;;;;;;;;;;;;;;;5016621;28;19909;-56
2024/01/02 14:11:10;;;;;;;;;;;;;;;;;;5037236;28;19919;-57
2024/01/02 14:13:36;;;;;;;;;;;;;;;;;;5030310;28;19917;-56
2024/01/02 14:16:02;;;;;;;;;;;;;;;;;;5030612;28;19909;-56
2024/01/02 14:18:28;;;;;;;;;;;;;;;;;;5031423;28;20356;-56
2024/01/02 14:20:54;;;;;;;;;;;;;;;;;;5026791;28;20396;-54
2024/01/02 14:23:20;;;;;;;;;;;;;;;;;;5029732;28;19956;-55
2024/01/02 14:25:46;;;;;;;;;;;;;;;;;;5029475;28;20420;-54
2024/01/02 14:28:12;;;;;;;;;;;;;;;;;;5030613;28;19956;-54
2024/01/02 14:30:38;;;;;;;;;;;;;;;;;;5030553;28;20441;-54
2024/01/02 14:33:04;;;;;;;;;;;;;;;;;;5029530;28;19911;-53
2024/01/02 14:35:30;;;;;;;;;;;;;;;;;;5029277;28;19924;-55
2024/01/02 14:37:56;;;;;;;;;;;;;;;;;;5028561;28;19912;-53
2024/01/02 14:40:22;;;;;;;;;;;;;;;;;;5029177;28;20408;-54
2024/01/02 14:42:48;;;;;;;;;;;;;;;;;;5029590;28;20322;-53
2024/01/02 14:45:15;;;;;;;;;;;;;;;;;;5029694;28;19920;-53
2024/01/02 14:47:41;;;;;;;;;;;;;;;;;;5029404;28;19917;-54
2024/01/02 14:50:07;;;;;;;;;;;;;;;;;;5032248;28;19993;-54
2024/01/02 14:52:34;;;;;;;;;;;;;;;;;;5029578;28;19924;-53
2024/01/02 14:55:01;;;;;;;;;;;;;;;;;;5030834;28;19996;-53
2024/01/02 14:57:27;;;;;;;;;;;;;;;;;;5027405;28;19967;-54
2024/01/02 14:59:54;;;;;;;;;;;;;;;;;;5029652;28;19909;-54
2024/01/02 15:02:20;;;;;;;;;;;;;;;;;;5016576;28;19919;-53
2024/01/02 15:04:46;;;;;;;;;;;;;;;;;;5026340;28;19917;-55
2024/01/02 15:07:12;;;;;;;;;;;;;;;;;;5029092;28;19932;-54
2024/01/02 15:09:38;;;;;;;;;;;;;;;;;;5020678;28;19909;-54
2024/01/02 15:12:04;;;;;;;;;;;;;;;;;;5029994;28;19999;-55
2024/01/02 15:14:31;;;;;;;;;;;;;;;;;;5028142;28;20241;-54
2024/01/02 15:16:57;;;;;;;;;;;;;;;;;;5028377;28;19925;-55
2024/01/02 15:19:23;;;;;;;;;;;;;;;;;;5027933;28;20003;-55
2024/01/02 15:21:49;;;;;;;;;;;;;;;;;;5029155;28;19917;-54
2024/01/02 15:24:16;;;;;;;;;;;;;;;;;;5028307;28;20440;-54
2024/01/02 15:26:42;;;;;;;;;;;;;;;;;;5028823;28;20130;-54
2024/01/02 15:29:08;;;;;;;;;;;;;;;;;;5028638;28;19913;-55
2024/01/02 15:31:34;;;;;;;;;;;;;;;;;;5024538;28;20007;-58
2024/01/02 15:34:00;;;;;;;;;;;;;;;;;;5027263;28;19913;-58
2024/01/02 15:36:26;;;;;;;;;;;;;;;;;;5028008;28;20415;-58
2024/01/02 15:38:53;;;;;;;;;;;;;;;;;;5029664;28;20326;-58
2024/01/02 15:41:19;;;;;;;;;;;;;;;;;;5029426;28;19909;-58
2024/01/02 15:43:45;;;;;;;;;;;;;;;;;;5029675;28;20334;-58
2024/01/02 15:46:16;;;;;;;;;;;;;;;;;;5028984;28;19944;-58
2024/01/02 15:48:42;;;;;;;;;;;;;;;;;;5026604;28;20427;-57
2024/01/02 15:51:08;;;;;;;;;;;;;;;;;;5026982;28;19952;-58
2024/01/02 15:53:34;;;;;;;;;;;;;;;;;;5028690;28;20507;-58
2024/01/02 15:55:59;;;;;;;;;;;;;;;;;;5028304;28;19956;-58
2024/01/02 15:58:25;;;;;;;;;;;;;;;;;;5028957;28;19960;-58
2024/01/02 16:00:51;;;;;;;;;;;;;;;;;;5025373;28;19956;-58
2024/01/02 16:03:17;;;;;;;;;;;;;;;;;;5026361;28;19913;-58
2024/01/02 16:05:43;;;;;;;;;;;;;;;;;;5026081;28;20391;-58
2024/01/02 16:08:09;;;;;;;;;;;;;;;;;;5028104;28;19952;-58
2024/01/02 16:10:36;;;;;;;;;;;;;;;;;;5027200;28;19960;-58
2024/01/02 16:13:02;;;;;;;;;;;;;;;;;;5030207;28;20038;-58
2024/01/02 16:15:28;;;;;;;;;;;;;;;;;;5027509;28;20007;-57
2024/01/02 16:17:54;;;;;;;;;;;;;;;;;;5027367;28;20059;-57
2024/01/02 16:20:23;;;;;;;;;;;;;;;;;;5027867;28;20340;-58
2024/01/02 16:22:49;;;;;;;;;;;;;;;;;;5027014;28;19927;-58
2024/01/02 16:25:16;;;;;;;;;;;;;;;;;;5026708;28;19943;-58
2024/01/02 16:27:42;;;;;;;;;;;;;;;;;;5028897;28;19913;-57
2024/01/02 16:30:08;;;;;;;;;;;;;;;;;;5028904;28;19920;-58
2024/01/02 16:32:34;;;;;;;;;;;;;;;;;;5026993;28;19960;-57
2024/01/02 16:35:00;;;;;;;;;;;;;;;;;;5027915;28;19944;-57